createdAt,value
2023-01-25T00:02:12.082Z,3.04
2023-01-25T00:04:39.468Z,3.19
2023-01-25T00:07:06.875Z,3.11
2023-01-25T00:09:34.248Z,3.31
2023-01-25T00:12:02.952Z,3.23
2023-01-25T00:14:30.457Z,3.10
2023-01-25T00:16:57.814Z,3.11
2023-01-25T00:19:25.183Z,3.19
2023-01-25T00:21:52.611Z,3.28
2023-01-25T00:24:22.928Z,3.25
2023-01-25T00:26:50.381Z,3.32
2023-01-25T00:29:19.330Z,3.40
2023-01-25T00:31:55.327Z,3.35
2023-01-25T00:34:46.036Z,3.37
2023-01-25T00:37:20.385Z,3.32
2023-01-25T00:39:47.793Z,3.38
2023-01-25T00:42:16.514Z,3.30
2023-01-25T00:44:45.206Z,3.25
2023-01-25T00:47:13.136Z,3.24
2023-01-25T00:49:42.868Z,3.30
2023-01-25T00:52:10.970Z,3.25
2023-01-25T00:54:38.379Z,3.20
2023-01-25T00:57:07.053Z,3.27
2023-01-25T00:59:35.048Z,3.27
2023-01-25T01:02:04.703Z,3.29
2023-01-25T01:04:32.307Z,3.21
2023-01-25T01:06:59.877Z,3.21
2023-01-25T01:09:27.453Z,3.30
2023-01-25T01:11:55.410Z,3.27
2023-01-25T01:14:23.249Z,3.23
2023-01-25T01:16:50.614Z,3.18
2023-01-25T01:19:19.482Z,3.13
2023-01-25T01:21:46.973Z,3.13
2023-01-25T01:24:14.427Z,3.12
2023-01-25T01:26:41.841Z,3.17
2023-01-25T01:29:09.361Z,3.09
2023-01-25T01:31:36.799Z,3.10
2023-01-25T01:34:04.191Z,3.06
2023-01-25T01:36:33.018Z,3.07
2023-01-25T01:39:00.700Z,2.98
2023-01-25T01:41:28.673Z,2.97
2023-01-25T01:43:55.948Z,2.99
2023-01-25T01:46:28.382Z,3.05
2023-01-25T01:48:58.893Z,3.02
2023-01-25T01:51:40.235Z,2.99
2023-01-25T01:54:12.614Z,3.07
2023-01-25T01:56:44.854Z,3.00
2023-01-25T01:59:13.020Z,3.01
2023-01-25T02:01:41.538Z,3.11
2023-01-25T02:04:09.728Z,3.18
2023-01-25T02:06:46.545Z,3.15
2023-01-25T02:09:16.904Z,3.18
2023-01-25T02:11:44.673Z,3.14
2023-01-25T02:14:12.212Z,3.11
2023-01-25T02:16:40.121Z,3.14
2023-01-25T02:19:11.678Z,3.12
2023-01-25T02:21:45.573Z,3.12
2023-01-25T02:24:18.410Z,3.23
2023-01-25T02:26:47.394Z,3.15
2023-01-25T02:29:15.403Z,3.21
2023-01-25T02:31:44.749Z,3.28
2023-01-25T02:34:12.363Z,3.24
2023-01-25T02:36:39.988Z,3.06
2023-01-25T02:39:10.971Z,3.05
2023-01-25T02:41:39.998Z,3.00
2023-01-25T02:44:12.359Z,3.14
2023-01-25T02:46:41.532Z,3.10
2023-01-25T02:49:10.367Z,3.17
2023-01-25T02:51:40.653Z,3.09
2023-01-25T02:54:09.921Z,3.07
2023-01-25T02:56:38.144Z,3.20
2023-01-25T02:59:05.745Z,3.17
2023-01-25T03:01:35.666Z,3.21
2023-01-25T03:04:03.052Z,3.21
2023-01-25T03:06:30.450Z,3.15
2023-01-25T03:08:57.914Z,3.16
2023-01-25T03:11:25.456Z,3.14
2023-01-25T03:13:53.063Z,3.10
2023-01-25T03:16:20.446Z,3.08
2023-01-25T03:18:49.490Z,3.02
2023-01-25T03:21:18.865Z,2.74
2023-01-25T03:23:47.925Z,2.78
2023-01-25T03:26:17.556Z,2.78
2023-01-25T03:28:45.220Z,2.71
2023-01-25T03:31:15.266Z,2.84
2023-01-25T03:33:43.616Z,2.85
2023-01-25T03:36:12.401Z,2.54
2023-01-25T03:38:39.795Z,2.75
2023-01-25T03:41:07.854Z,2.87
2023-01-25T03:43:35.150Z,2.89
2023-01-25T03:46:03.459Z,3.02
2023-01-25T03:48:31.635Z,2.86
2023-01-25T03:51:00.479Z,2.74
2023-01-25T03:53:30.224Z,2.80
2023-01-25T03:56:00.250Z,2.74
2023-01-25T03:58:27.816Z,2.81
2023-01-25T04:00:56.750Z,3.05
2023-01-25T04:03:25.092Z,3.09
2023-01-25T04:05:52.744Z,3.08
2023-01-25T04:08:20.523Z,3.05
2023-01-25T04:10:53.583Z,2.92
2023-01-25T04:13:21.617Z,3.05
2023-01-25T04:15:48.974Z,2.95
2023-01-25T04:18:16.968Z,2.97
2023-01-25T04:20:44.299Z,2.81
2023-01-25T04:23:12.068Z,2.89
2023-01-25T04:25:39.800Z,2.87
2023-01-25T04:28:08.617Z,3.01
2023-01-25T04:30:35.987Z,2.96
2023-01-25T04:33:04.985Z,2.99
2023-01-25T04:35:32.622Z,2.94
2023-01-25T04:38:00.792Z,2.85
2023-01-25T04:40:28.599Z,2.70
2023-01-25T04:42:55.994Z,2.77
2023-01-25T04:45:25.935Z,2.92
2023-01-25T04:47:57.772Z,2.89
2023-01-25T04:50:26.137Z,2.98
2023-01-25T04:52:53.949Z,3.03
2023-01-25T04:55:21.787Z,3.03
2023-01-25T04:57:50.327Z,2.95
2023-01-25T05:00:18.593Z,2.91
2023-01-25T05:02:47.781Z,2.96
2023-01-25T05:05:15.715Z,2.96
2023-01-25T05:07:43.187Z,2.89
2023-01-25T05:10:11.753Z,2.91
2023-01-25T05:12:39.181Z,2.97
2023-01-25T05:15:08.110Z,2.94
2023-01-25T05:17:35.723Z,2.99
2023-01-25T05:20:05.188Z,2.97
2023-01-25T05:22:32.614Z,2.97
2023-01-25T05:25:01.824Z,3.01
2023-01-25T05:27:28.312Z,2.98
2023-01-25T05:29:56.402Z,3.00
2023-01-25T05:32:24.420Z,2.95
2023-01-25T05:34:52.193Z,2.83
2023-01-25T05:37:22.607Z,2.88
2023-01-25T05:39:49.978Z,2.77
2023-01-25T05:42:19.441Z,2.82
2023-01-25T05:44:47.927Z,2.88
2023-01-25T05:47:18.280Z,2.88
2023-01-25T05:49:45.677Z,2.89
2023-01-25T05:52:15.126Z,2.89
2023-01-25T05:54:44.215Z,2.84
2023-01-25T05:57:11.632Z,2.78
2023-01-25T05:59:39.029Z,2.65
2023-01-25T06:02:06.568Z,2.78
2023-01-25T06:04:33.973Z,2.71
2023-01-25T06:07:01.338Z,2.75
2023-01-25T06:09:28.706Z,2.77
2023-01-25T06:11:57.420Z,2.76
2023-01-25T06:14:24.901Z,2.71
2023-01-25T06:16:52.335Z,2.77
2023-01-25T06:19:19.741Z,2.76
2023-01-25T06:21:47.136Z,2.74
2023-01-25T06:24:14.664Z,2.75
2023-01-25T06:26:42.102Z,2.66
2023-01-25T06:29:11.176Z,2.62
2023-01-25T06:31:38.796Z,2.60
2023-01-25T06:34:08.076Z,2.66
2023-01-25T06:36:35.980Z,2.63
2023-01-25T06:39:03.477Z,2.63
2023-01-25T06:41:30.832Z,2.57
2023-01-25T06:43:58.242Z,2.61
2023-01-25T06:46:27.163Z,2.65
2023-01-25T06:48:54.531Z,2.70
2023-01-25T06:51:21.902Z,2.59
2023-01-25T06:53:49.318Z,2.67
2023-01-25T06:56:18.851Z,2.73
2023-01-25T06:58:47.023Z,2.75
2023-01-25T07:01:16.317Z,2.77
2023-01-25T07:03:45.041Z,2.90
2023-01-25T07:06:12.615Z,2.90
2023-01-25T07:08:40.204Z,2.80
2023-01-25T07:11:13.536Z,2.84
2023-01-25T07:13:42.082Z,2.89
2023-01-25T07:16:13.302Z,2.89
2023-01-25T07:18:40.781Z,2.86
2023-01-25T07:21:12.104Z,2.89
2023-01-25T07:23:39.951Z,2.86
2023-01-25T07:26:07.798Z,2.88
2023-01-25T07:28:35.169Z,2.87
2023-01-25T07:31:07.040Z,2.91
2023-01-25T07:33:35.071Z,2.91
2023-01-25T07:36:02.770Z,2.77
2023-01-25T07:38:31.644Z,2.88
2023-01-25T07:40:59.063Z,2.87
2023-01-25T07:43:26.886Z,2.87
2023-01-25T07:45:54.730Z,2.87
2023-01-25T07:48:22.157Z,2.95
2023-01-25T07:50:54.339Z,2.91
2023-01-25T07:53:21.708Z,2.86
2023-01-25T07:55:50.448Z,2.36
2023-01-25T07:58:17.993Z,2.39
2023-01-25T08:00:45.382Z,2.53
2023-01-25T08:03:14.083Z,2.55
2023-01-25T08:05:45.359Z,2.57
2023-01-25T08:08:12.976Z,2.75
2023-01-25T08:10:40.504Z,2.83
2023-01-25T08:13:09.193Z,2.67
2023-01-25T08:15:36.812Z,2.79
2023-01-25T08:18:06.935Z,2.80
2023-01-25T08:20:34.352Z,2.82
2023-01-25T08:23:01.716Z,2.74
2023-01-25T08:25:29.130Z,2.88
2023-01-25T08:27:56.504Z,3.04
2023-01-25T08:30:25.241Z,2.80
2023-01-25T08:32:52.607Z,2.86
2023-01-25T08:35:20.018Z,2.98
2023-01-25T08:37:48.439Z,3.01
2023-01-25T08:40:15.931Z,2.59
2023-01-25T08:42:43.428Z,2.62
2023-01-25T08:45:11.744Z,2.44
2023-01-25T08:47:40.506Z,2.52
2023-01-25T08:50:09.664Z,2.81
2023-01-25T08:52:37.371Z,2.70
2023-01-25T08:55:05.376Z,2.59
2023-01-25T08:57:32.637Z,2.43
2023-01-25T09:00:00.044Z,2.48
2023-01-25T09:02:27.430Z,2.41
2023-01-25T09:04:56.119Z,2.51
2023-01-25T09:07:23.596Z,2.68
2023-01-25T09:09:51.137Z,2.61
2023-01-25T09:12:18.548Z,2.37
2023-01-25T09:14:45.943Z,2.49
2023-01-25T09:17:13.340Z,2.73
2023-01-25T09:19:42.364Z,2.93
2023-01-25T09:22:11.053Z,3.07
2023-01-25T09:24:38.490Z,3.01
2023-01-25T09:27:05.952Z,2.85
2023-01-25T09:29:33.340Z,2.89
2023-01-25T09:32:00.839Z,2.92
2023-01-25T09:34:28.327Z,3.01
2023-01-25T09:36:55.686Z,2.99
2023-01-25T09:39:24.876Z,2.48
2023-01-25T09:42:14.619Z,2.66
2023-01-25T09:44:59.546Z,2.84
2023-01-25T09:47:31.697Z,2.96
2023-01-25T09:50:20.028Z,2.71
2023-01-25T09:53:20.285Z,3.00
2023-01-25T09:55:54.130Z,3.05
2023-01-25T09:58:25.430Z,3.14
2023-01-25T10:01:00.155Z,2.64
2023-01-25T10:03:35.850Z,2.56
2023-01-25T10:06:04.048Z,2.69
2023-01-25T10:08:36.922Z,3.01
2023-01-25T10:11:15.034Z,2.96
2023-01-25T10:13:42.449Z,2.90
2023-01-25T10:16:25.659Z,2.58
2023-01-25T10:19:06.907Z,2.70
2023-01-25T10:21:39.332Z,2.69
2023-01-25T10:24:33.397Z,2.88
2023-01-25T10:27:17.521Z,2.98
2023-01-25T10:29:45.720Z,2.74
2023-01-25T10:32:19.930Z,2.67
2023-01-25T10:34:56.600Z,2.60
2023-01-25T10:37:27.743Z,2.69
2023-01-25T10:40:00.007Z,2.82
2023-01-25T10:42:32.704Z,2.57
2023-01-25T10:45:00.113Z,2.66
2023-01-25T10:47:30.152Z,2.80
2023-01-25T10:49:59.343Z,2.72
2023-01-25T10:52:28.353Z,2.74
2023-01-25T10:55:15.300Z,2.90
2023-01-25T10:57:50.856Z,3.02
2023-01-25T11:03:21.932Z,3.26
2023-01-25T11:05:55.266Z,3.17
2023-01-25T11:08:26.338Z,3.27
2023-01-25T11:10:54.867Z,3.21
2023-01-25T11:13:26.541Z,3.15
2023-01-25T11:16:15.109Z,3.09
2023-01-25T11:18:51.977Z,2.78
2023-01-25T11:21:23.166Z,2.90
2023-01-25T11:24:17.232Z,2.99
2023-01-25T11:26:45.197Z,2.90
2023-01-25T11:29:15.366Z,3.05
2023-01-25T11:31:46.127Z,2.91
2023-01-25T11:34:15.825Z,2.69
2023-01-25T11:36:58.391Z,2.72
2023-01-25T11:39:50.789Z,2.86
2023-01-25T11:42:28.985Z,2.85
2023-01-25T11:45:37.626Z,2.55
2023-01-25T11:48:25.095Z,2.61
2023-01-25T11:51:03.075Z,2.64
2023-01-25T11:53:46.787Z,2.77
2023-01-25T11:56:24.342Z,2.76
2023-01-25T11:59:07.630Z,2.60
2023-01-25T12:01:46.592Z,2.59
2023-01-25T12:04:47.892Z,2.86
2023-01-25T12:07:23.154Z,2.97
2023-01-25T12:10:05.177Z,3.19
2023-01-25T12:12:44.339Z,3.08
2023-01-25T12:15:32.884Z,3.23
2023-01-25T12:18:16.814Z,3.01
2023-01-25T12:21:04.306Z,2.94
2023-01-25T12:23:38.464Z,2.88
2023-01-25T12:26:17.780Z,2.76
2023-01-25T12:28:51.191Z,2.86
2023-01-25T12:31:23.149Z,3.08
2023-01-25T12:33:57.653Z,3.14
2023-01-25T12:36:29.593Z,3.04
2023-01-25T12:39:02.216Z,3.19
2023-01-25T12:41:39.823Z,3.42
2023-01-25T12:44:15.104Z,3.26
2023-01-25T12:46:51.106Z,3.46
2023-01-25T12:49:28.365Z,3.18
2023-01-25T12:51:57.484Z,2.88
2023-01-25T12:54:32.173Z,3.01
2023-01-25T12:57:10.260Z,3.17
2023-01-25T12:59:47.278Z,3.27
2023-01-25T13:02:32.080Z,3.08
2023-01-25T13:05:13.444Z,2.76
2023-01-25T13:07:46.137Z,2.50
2023-01-25T13:10:19.388Z,2.60
2023-01-25T13:12:54.952Z,2.88
2023-01-25T13:15:40.586Z,2.98
2023-01-25T13:18:40.322Z,2.57
2023-01-25T13:21:46.078Z,2.67
2023-01-25T13:24:19.218Z,2.88
2023-01-25T13:26:58.566Z,3.02
2023-01-25T13:29:47.041Z,3.05
2023-01-25T13:32:15.868Z,3.10
2023-01-25T13:34:58.868Z,3.15
2023-01-25T13:37:29.930Z,3.28
2023-01-25T13:40:10.099Z,3.22
2023-01-25T13:42:39.990Z,3.30
2023-01-25T13:45:18.478Z,3.48
2023-01-25T13:48:02.133Z,3.51
2023-01-25T13:50:34.113Z,3.55
2023-01-25T13:53:04.797Z,3.24
2023-01-25T13:55:40.094Z,3.30
2023-01-25T13:58:12.195Z,3.32
2023-01-25T14:00:49.087Z,3.25
2023-01-25T14:03:17.100Z,3.26
2023-01-25T14:05:49.873Z,3.12
2023-01-25T14:08:20.839Z,3.12
2023-01-25T14:10:49.741Z,3.08
2023-01-25T14:13:18.559Z,3.09
2023-01-25T14:15:57.402Z,3.13
2023-01-25T14:18:32.067Z,3.23
2023-01-25T14:21:15.788Z,3.14
2023-01-25T14:23:45.377Z,3.37
2023-01-25T14:26:18.950Z,3.51
2023-01-25T14:28:59.057Z,3.54
2023-01-25T14:31:35.173Z,3.53
2023-01-25T14:34:04.803Z,3.48
2023-01-25T14:36:35.967Z,3.40
2023-01-25T14:39:17.567Z,3.44
2023-01-25T14:41:59.778Z,3.43
2023-01-25T14:44:29.882Z,3.26
2023-01-25T14:47:23.725Z,3.26
2023-01-25T14:49:51.364Z,3.40
2023-01-25T14:52:21.591Z,3.39
2023-01-25T14:54:53.265Z,3.41
2023-01-25T14:57:33.338Z,3.44
2023-01-25T15:00:03.353Z,3.24
2023-01-25T15:02:38.775Z,3.32
2023-01-25T15:05:15.603Z,3.23
2023-01-25T15:07:46.003Z,3.09
2023-01-25T15:10:21.550Z,3.25
2023-01-25T15:13:13.523Z,2.97
2023-01-25T15:15:54.102Z,3.05
2023-01-25T15:18:46.584Z,3.05
2023-01-25T15:21:15.843Z,3.16
2023-01-25T15:23:44.852Z,3.24
2023-01-25T15:26:20.788Z,3.20
2023-01-25T15:28:48.864Z,2.98
2023-01-25T15:31:17.728Z,3.04
2023-01-25T15:33:45.288Z,3.26
2023-01-25T15:36:14.389Z,3.23
2023-01-25T15:38:41.852Z,3.16
2023-01-25T15:41:10.257Z,3.22
2023-01-25T15:43:39.034Z,3.21
2023-01-25T15:46:07.836Z,3.33
2023-01-25T15:48:38.660Z,3.05
2023-01-25T15:51:06.352Z,2.87
2023-01-25T15:53:33.830Z,2.97
2023-01-25T15:56:04.213Z,2.73
2023-01-25T15:58:35.145Z,2.93
2023-01-25T16:01:04.387Z,3.03
2023-01-25T16:03:32.527Z,2.91
2023-01-25T16:06:03.442Z,2.98
2023-01-25T16:08:31.443Z,3.03
2023-01-25T16:10:58.706Z,3.12
2023-01-25T16:13:26.057Z,3.19
2023-01-25T16:15:56.743Z,3.11
2023-01-25T16:18:25.478Z,3.19
2023-01-25T16:20:52.838Z,3.09
2023-01-25T16:23:20.230Z,3.18
2023-01-25T16:25:49.237Z,3.21
2023-01-25T16:28:17.153Z,3.15
2023-01-25T16:30:45.390Z,3.18
2023-01-25T16:33:12.931Z,3.18
2023-01-25T16:35:41.651Z,3.50
2023-01-25T16:38:11.759Z,3.61
2023-01-25T16:40:39.738Z,3.45
2023-01-25T16:43:07.114Z,3.72
2023-01-25T16:45:34.558Z,4.02
2023-01-25T16:48:02.219Z,3.94
2023-01-25T16:50:29.717Z,4.19
2023-01-25T16:52:59.994Z,4.41
2023-01-25T16:55:27.472Z,4.14
2023-01-25T16:57:54.954Z,4.31
2023-01-25T17:00:22.980Z,4.31
2023-01-25T17:02:59.165Z,4.32
2023-01-25T17:05:28.914Z,4.33
2023-01-25T17:07:57.870Z,4.31
2023-01-25T17:10:25.334Z,3.89
2023-01-25T17:12:52.758Z,3.79
2023-01-25T17:15:20.494Z,3.94
2023-01-25T17:17:47.928Z,4.06
2023-01-25T17:20:15.539Z,4.17
2023-01-25T17:22:44.301Z,4.20
2023-01-25T17:25:13.015Z,3.76
2023-01-25T17:27:40.418Z,3.72
2023-01-25T17:30:09.659Z,3.65
2023-01-25T17:32:37.515Z,3.27
2023-01-25T17:35:05.381Z,3.41
2023-01-25T17:37:32.760Z,3.67
2023-01-25T17:40:00.237Z,3.40
2023-01-25T17:42:28.907Z,3.29
2023-01-25T17:44:56.307Z,3.08
2023-01-25T17:47:23.667Z,3.02
2023-01-25T17:49:51.109Z,3.28
2023-01-25T17:52:18.490Z,3.07
2023-01-25T17:54:45.949Z,2.96
2023-01-25T17:57:13.332Z,2.96
2023-01-25T17:59:42.000Z,3.44
2023-01-25T18:02:11.819Z,3.40
2023-01-25T18:04:39.734Z,3.22
2023-01-25T18:07:07.106Z,3.09
2023-01-25T18:09:35.743Z,3.11
2023-01-25T18:12:03.152Z,3.20
2023-01-25T18:14:30.646Z,3.20
2023-01-25T18:16:59.413Z,3.12
2023-01-25T18:19:31.189Z,2.99
2023-01-25T18:21:58.985Z,2.96
2023-01-25T18:27:24.850Z,2.99
2023-01-25T18:30:00.325Z,2.95
2023-01-25T18:32:30.344Z,3.01
2023-01-25T18:34:58.117Z,3.33
2023-01-25T18:37:29.435Z,3.48
2023-01-25T18:39:57.507Z,3.62
2023-01-25T18:42:26.303Z,3.84
2023-01-25T18:44:53.944Z,4.01
2023-01-25T18:47:23.133Z,3.91
2023-01-25T18:49:53.364Z,3.92
2023-01-25T18:52:22.704Z,3.80
2023-01-25T18:54:50.200Z,3.76
2023-01-25T18:57:18.513Z,3.69
2023-01-25T18:59:46.317Z,3.30
2023-01-25T19:02:16.241Z,3.33
2023-01-25T19:04:44.127Z,3.28
2023-01-25T19:07:13.103Z,3.22
2023-01-25T19:09:43.461Z,3.40
2023-01-25T19:12:11.541Z,3.74
2023-01-25T19:14:38.863Z,3.65
2023-01-25T19:17:08.219Z,3.36
2023-01-25T19:19:35.761Z,3.12
2023-01-25T19:22:03.153Z,3.27
2023-01-25T19:24:32.025Z,3.16
2023-01-25T19:27:00.001Z,2.95
2023-01-25T19:29:27.539Z,2.93
2023-01-25T19:31:55.294Z,2.91
2023-01-25T19:34:22.864Z,3.14
2023-01-25T19:36:50.578Z,3.20
2023-01-25T19:39:19.034Z,3.18
2023-01-25T19:41:48.187Z,2.97
2023-01-25T19:44:16.078Z,3.07
2023-01-25T19:46:43.975Z,3.39
2023-01-25T19:49:13.237Z,3.49
2023-01-25T19:51:44.269Z,3.42
2023-01-25T19:54:15.658Z,3.51
2023-01-25T19:56:45.191Z,3.29
2023-01-25T19:59:15.754Z,2.96
2023-01-25T20:01:43.948Z,3.00
2023-01-25T20:04:12.711Z,2.95
2023-01-25T20:06:40.815Z,2.86
2023-01-25T20:09:08.582Z,2.83
2023-01-25T20:11:36.445Z,2.76
2023-01-25T20:14:06.331Z,2.78
2023-01-25T20:16:36.090Z,2.98
2023-01-25T20:19:04.471Z,2.97
2023-01-25T20:21:33.567Z,3.24
2023-01-25T20:24:06.552Z,3.41
2023-01-25T20:26:36.574Z,3.47
2023-01-25T20:29:07.806Z,3.66
2023-01-25T20:31:37.841Z,3.43
2023-01-25T20:34:07.683Z,3.13
2023-01-25T20:36:35.861Z,3.13
2023-01-25T20:39:04.403Z,3.35
2023-01-25T20:41:32.169Z,3.09
2023-01-25T20:44:01.919Z,3.01
2023-01-25T20:46:33.725Z,2.89
2023-01-25T20:49:03.003Z,2.83
2023-01-25T20:51:30.687Z,3.23
2023-01-25T20:53:58.646Z,3.41
2023-01-25T20:56:26.373Z,3.63
2023-01-25T20:58:54.985Z,3.59
2023-01-25T21:01:24.772Z,3.55
2023-01-25T21:03:54.355Z,3.67
2023-01-25T21:06:23.652Z,3.43
2023-01-25T21:08:51.370Z,3.08
2023-01-25T21:11:19.267Z,2.84
2023-01-25T21:13:48.339Z,2.74
2023-01-25T21:16:19.034Z,2.79
2023-01-25T21:18:48.342Z,2.88
2023-01-25T21:21:18.430Z,2.63
2023-01-25T21:23:49.268Z,2.59
2023-01-25T21:26:18.928Z,2.60
2023-01-25T21:28:47.346Z,2.60
2023-01-25T21:31:17.171Z,2.55
2023-01-25T21:33:45.211Z,2.81
2023-01-25T21:36:15.246Z,2.72
2023-01-25T21:38:43.995Z,2.63
2023-01-25T21:41:14.837Z,2.74
2023-01-25T21:44:00.144Z,2.90
2023-01-25T21:46:29.042Z,2.45
2023-01-25T21:49:15.933Z,2.39
2023-01-25T21:51:49.447Z,2.39
2023-01-25T21:54:17.805Z,2.44
2023-01-25T21:56:48.354Z,2.52
2023-01-25T21:59:16.546Z,2.51
2023-01-25T22:01:45.173Z,2.57
2023-01-25T22:04:13.683Z,2.49
2023-01-25T22:06:41.772Z,2.65
2023-01-25T22:09:09.783Z,2.79
2023-01-25T22:11:37.436Z,2.75
2023-01-25T22:14:06.208Z,2.60
2023-01-25T22:16:34.456Z,2.54
2023-01-25T22:19:01.876Z,2.75
2023-01-25T22:21:32.153Z,2.80
2023-01-25T22:24:00.061Z,2.80
2023-01-25T22:26:33.680Z,2.80
2023-01-25T22:29:01.500Z,3.02
2023-01-25T22:31:32.083Z,3.00
2023-01-25T22:34:00.287Z,2.97
2023-01-25T22:36:29.895Z,2.94
2023-01-25T22:38:57.407Z,2.92
2023-01-25T22:41:26.975Z,3.02
2023-01-25T22:43:54.777Z,3.21
2023-01-25T22:46:24.552Z,3.22
2023-01-25T22:48:53.424Z,3.09
2023-01-25T22:51:25.332Z,2.79
2023-01-25T22:53:53.321Z,2.66
2023-01-25T22:56:22.988Z,2.61
2023-01-25T22:58:51.081Z,2.64
2023-01-25T23:01:19.671Z,2.75
2023-01-25T23:03:48.364Z,2.87
2023-01-25T23:06:19.200Z,2.71
2023-01-25T23:08:47.238Z,2.63
2023-01-25T23:11:15.570Z,2.58
2023-01-25T23:14:04.419Z,2.57
2023-01-25T23:16:31.890Z,2.69
2023-01-25T23:18:58.836Z,2.57
2023-01-25T23:21:29.993Z,2.61
2023-01-25T23:24:00.602Z,2.54
2023-01-25T23:26:29.187Z,2.64
2023-01-25T23:28:58.561Z,2.84
2023-01-25T23:31:26.761Z,2.84
2023-01-25T23:33:56.763Z,2.76
2023-01-25T23:36:25.884Z,2.89
2023-01-25T23:38:55.411Z,2.98
2023-01-25T23:41:26.123Z,2.85
2023-01-25T23:43:54.997Z,2.98
2023-01-25T23:46:23.538Z,2.99
2023-01-25T23:48:51.535Z,2.82
2023-01-25T23:51:20.283Z,2.83
2023-01-25T23:53:48.437Z,2.75
2023-01-25T23:56:19.945Z,2.78
2023-01-25T23:58:48.802Z,2.61
